createdAt,value
2022-10-05T00:00:50.109Z,7.7
2022-10-05T00:02:49.912Z,5.1
2022-10-05T00:04:50.555Z,5.9
2022-10-05T00:06:50.270Z,6.1
2022-10-05T00:08:50.166Z,6.1
2022-10-05T00:10:50.318Z,7.8
2022-10-05T00:12:50.381Z,5.9
2022-10-05T00:14:50.394Z,7.2
2022-10-05T00:16:50.133Z,7.2
2022-10-05T00:18:50.027Z,7.4
2022-10-05T00:20:49.852Z,6.6
2022-10-05T00:22:50.046Z,6.6
2022-10-05T00:24:50.082Z,8.5
2022-10-05T00:26:54.070Z,8.5
2022-10-05T00:28:50.371Z,5.3
2022-10-05T00:30:50.475Z,5.6
2022-10-05T00:32:50.551Z,5.0
2022-10-05T00:34:49.922Z,5.7
2022-10-05T00:36:50.352Z,5.7
2022-10-05T00:38:50.107Z,5.7
2022-10-05T00:40:50.154Z,5.7
2022-10-05T00:42:50.003Z,6.6
2022-10-05T00:44:50.143Z,6.6
2022-10-05T00:46:49.571Z,6.6
2022-10-05T00:48:50.432Z,9.9
2022-10-05T00:50:50.480Z,5.2
2022-10-05T00:52:50.365Z,6.2
2022-10-05T00:54:50.544Z,6.6
2022-10-05T00:56:49.919Z,8.2
2022-10-05T00:58:49.977Z,8.2
2022-10-05T01:00:50.117Z,7.7
2022-10-05T01:02:50.629Z,6.1
2022-10-05T01:04:50.473Z,6.9
2022-10-05T01:06:49.739Z,8.3
2022-10-05T01:08:49.825Z,8.3
2022-10-05T01:10:49.695Z,5.9
2022-10-05T01:12:49.801Z,7.5
2022-10-05T01:14:49.753Z,5.5
2022-10-05T01:16:50.746Z,5.5
2022-10-05T01:18:50.536Z,8.6
2022-10-05T01:20:49.618Z,7.6
2022-10-05T01:22:49.551Z,7.0
2022-10-05T01:24:50.479Z,7.7
2022-10-05T01:26:49.901Z,7.7
2022-10-05T01:28:49.672Z,6.8
2022-10-05T01:30:49.662Z,6.5
2022-10-05T01:32:49.634Z,6.9
2022-10-05T01:34:50.106Z,6.9
2022-10-05T01:36:49.903Z,6.1
2022-10-05T01:38:50.058Z,6.1
2022-10-05T01:40:49.996Z,8.3
2022-10-05T01:42:49.911Z,8.3
2022-10-05T01:44:50.064Z,7.3
2022-10-05T01:46:50.353Z,7.3
2022-10-05T01:48:50.606Z,5.8
2022-10-05T01:50:49.614Z,6.3
2022-10-05T01:52:50.513Z,6.3
2022-10-05T01:54:49.604Z,6.9
2022-10-05T01:56:49.899Z,9.6
2022-10-05T01:58:49.688Z,7.4
2022-10-05T02:00:49.959Z,9.2
2022-10-05T02:02:50.289Z,9.2
2022-10-05T02:05:01.761Z,6.3
2022-10-05T02:06:49.927Z,6.3
2022-10-05T02:08:49.918Z,6.3
2022-10-05T02:10:49.945Z,8.5
2022-10-05T02:12:49.949Z,6.7
2022-10-05T02:14:50.080Z,6.7
2022-10-05T02:16:50.304Z,8.1
2022-10-05T02:18:50.327Z,7.0
2022-10-05T02:20:50.385Z,6.6
2022-10-05T02:22:50.506Z,5.9
2022-10-05T02:24:50.432Z,5.9
2022-10-05T02:26:49.784Z,8.6
2022-10-05T02:28:49.732Z,9.5
2022-10-05T02:30:49.922Z,6.3
2022-10-05T02:32:49.927Z,7.7
2022-10-05T02:34:50.300Z,7.7
2022-10-05T02:36:49.804Z,7.7
2022-10-05T02:38:49.975Z,8.0
2022-10-05T02:40:50.027Z,8.1
2022-10-05T02:42:49.894Z,8.1
2022-10-05T02:44:50.061Z,6.5
2022-10-05T02:46:54.574Z,6.8
2022-10-05T02:48:49.618Z,6.8
2022-10-05T02:50:49.580Z,5.9
2022-10-05T02:52:50.429Z,5.9
2022-10-05T02:54:50.367Z,6.1
2022-10-05T02:56:50.087Z,9.2
2022-10-05T02:58:50.221Z,7.2
2022-10-05T03:00:50.312Z,10.3
2022-10-05T03:02:49.829Z,10.3
2022-10-05T03:04:50.389Z,7.0
2022-10-05T03:06:49.822Z,7.3
2022-10-05T03:08:49.744Z,6.8
2022-10-05T03:10:49.886Z,7.5
2022-10-05T03:12:49.791Z,7.5
2022-10-05T03:14:49.939Z,6.2
2022-10-05T03:16:49.655Z,9.1
2022-10-05T03:18:50.398Z,10.0
2022-10-05T03:20:50.162Z,8.4
2022-10-05T03:22:50.021Z,8.4
2022-10-05T03:24:50.144Z,8.0
2022-10-05T03:26:50.411Z,6.9
2022-10-05T03:28:50.535Z,9.9
2022-10-05T03:30:50.494Z,9.9
2022-10-05T03:32:49.787Z,6.8
2022-10-05T03:34:49.732Z,6.9
2022-10-05T03:36:50.147Z,6.8
2022-10-05T03:38:50.203Z,7.7
2022-10-05T03:40:50.164Z,7.7
2022-10-05T03:42:50.270Z,8.2
2022-10-05T03:44:50.057Z,8.2
2022-10-05T03:46:50.634Z,7.6
2022-10-05T03:48:49.707Z,7.6
2022-10-05T03:50:49.839Z,7.4
2022-10-05T03:52:50.021Z,8.7
2022-10-05T03:54:50.153Z,8.6
2022-10-05T03:56:49.755Z,7.9
2022-10-05T03:58:50.044Z,7.9
2022-10-05T04:00:50.295Z,7.9
2022-10-05T04:02:50.297Z,7.9
2022-10-05T04:04:50.327Z,10.9
2022-10-05T04:06:50.551Z,10.9
2022-10-05T04:08:50.484Z,8.3
2022-10-05T04:10:50.511Z,8.3
2022-10-05T04:12:50.519Z,9.4
2022-10-05T04:14:50.453Z,12.6
2022-10-05T04:16:49.912Z,9.4
2022-10-05T04:18:50.248Z,9.4
2022-10-05T04:20:50.077Z,9.4
2022-10-05T04:22:50.169Z,9.0
2022-10-05T04:24:50.158Z,8.5
2022-10-05T04:26:50.390Z,9.8
2022-10-05T04:28:50.248Z,9.8
2022-10-05T04:30:50.400Z,8.4
2022-10-05T04:32:50.354Z,10.6
2022-10-05T04:34:49.893Z,9.8
2022-10-05T04:36:49.647Z,11.6
2022-10-05T04:38:50.461Z,7.0
2022-10-05T04:40:50.482Z,7.0
2022-10-05T04:42:49.569Z,7.6
2022-10-05T04:44:49.912Z,7.6
2022-10-05T04:46:50.495Z,7.6
2022-10-05T04:52:49.801Z,8.7
2022-10-05T04:54:49.687Z,8.9
2022-10-05T04:56:50.086Z,10.8
2022-10-05T04:58:50.278Z,10.8
2022-10-05T05:00:50.125Z,8.2
2022-10-05T05:02:49.739Z,10.1
2022-10-05T05:04:51.930Z,10.1
2022-10-05T05:06:50.520Z,9.9
2022-10-05T05:08:50.536Z,14.6
2022-10-05T05:10:50.281Z,10.2
2022-10-05T05:12:50.340Z,9.5
2022-10-05T05:14:50.367Z,10.0
2022-10-05T05:16:50.074Z,10.0
2022-10-05T05:18:50.296Z,10.9
2022-10-05T05:20:49.555Z,8.6
2022-10-05T05:22:50.356Z,7.5
2022-10-05T05:24:50.424Z,7.5
2022-10-05T05:26:50.043Z,11.2
2022-10-05T05:28:49.894Z,12.5
2022-10-05T05:30:49.916Z,8.3
2022-10-05T05:32:49.929Z,12.6
2022-10-05T05:34:50.412Z,12.5
2022-10-05T05:36:49.973Z,12.5
2022-10-05T05:38:50.084Z,10.8
2022-10-05T05:40:50.092Z,11.1
2022-10-05T05:42:50.062Z,11.1
2022-10-05T05:44:50.012Z,10.5
2022-10-05T05:47:03.306Z,10.2
2022-10-05T05:48:49.778Z,12.1
2022-10-05T05:50:49.727Z,11.4
2022-10-05T05:52:49.818Z,11.2
2022-10-05T05:54:49.850Z,12.7
2022-10-05T05:56:50.130Z,12.7
2022-10-05T05:58:49.945Z,9.4
2022-10-05T06:00:50.005Z,12.3
2022-10-05T06:02:49.997Z,11.5
2022-10-05T06:04:50.277Z,11.5
2022-10-05T06:06:49.997Z,13.1
2022-10-05T06:08:50.415Z,12.7
2022-10-05T06:10:50.486Z,12.7
2022-10-05T06:12:49.644Z,10.9
2022-10-05T06:14:49.873Z,8.4
2022-10-05T06:16:50.500Z,8.4
2022-10-05T06:18:50.299Z,11.5
2022-10-05T06:20:50.247Z,12.7
2022-10-05T06:22:50.288Z,13.9
2022-10-05T06:24:50.174Z,13.9
2022-10-05T06:26:50.478Z,13.5
2022-10-05T06:28:50.449Z,12.2
2022-10-05T06:30:49.611Z,12.2
2022-10-05T06:32:49.713Z,13.1
2022-10-05T06:34:50.338Z,13.1
2022-10-05T06:36:49.784Z,8.5
2022-10-05T06:38:50.289Z,8.4
2022-10-05T06:40:50.263Z,8.4
2022-10-05T06:42:50.365Z,11.8
2022-10-05T06:44:50.416Z,11.1
2022-10-05T06:46:49.982Z,11.1
2022-10-05T06:50:50.369Z,10.0
2022-10-05T06:52:50.225Z,10.0
2022-10-05T06:54:50.276Z,10.1
2022-10-05T06:56:50.084Z,9.3
2022-10-05T06:58:50.342Z,10.5
2022-10-05T07:00:50.395Z,13.3
2022-10-05T07:02:50.507Z,10.3
2022-10-05T07:04:49.877Z,10.3
2022-10-05T07:06:50.260Z,12.5
2022-10-05T07:08:50.212Z,11.6
2022-10-05T07:10:50.229Z,8.1
2022-10-05T07:12:50.191Z,8.1
2022-10-05T07:14:50.506Z,11.2
2022-10-05T07:16:49.811Z,9.0
2022-10-05T07:18:50.286Z,9.0
2022-10-05T07:20:50.372Z,10.3
2022-10-05T07:22:50.509Z,10.3
2022-10-05T07:24:50.353Z,9.2
2022-10-05T07:26:50.075Z,10.4
2022-10-05T07:28:49.968Z,12.6
2022-10-05T07:30:50.146Z,9.0
2022-10-05T07:32:49.803Z,9.0
2022-10-05T07:34:50.304Z,11.1
2022-10-05T07:36:52.291Z,10.1
2022-10-05T07:38:50.185Z,10.1
2022-10-05T07:40:50.570Z,9.0
2022-10-05T07:42:52.191Z,11.6
2022-10-05T07:44:50.261Z,10.2
2022-10-05T07:46:49.883Z,10.3
2022-10-05T07:48:50.067Z,10.3
2022-10-05T07:50:49.986Z,12.2
2022-10-05T07:52:50.075Z,8.9
2022-10-05T07:54:50.121Z,9.3
2022-10-05T07:56:50.697Z,8.9
2022-10-05T07:58:49.884Z,11.1
2022-10-05T08:00:50.009Z,11.1
2022-10-05T08:02:49.783Z,10.2
2022-10-05T08:04:50.538Z,10.0
2022-10-05T08:06:50.371Z,9.2
2022-10-05T08:08:50.172Z,9.2
2022-10-05T08:10:50.131Z,9.2
2022-10-05T08:12:49.951Z,13.1
2022-10-05T08:14:50.075Z,8.9
2022-10-05T08:16:50.486Z,8.9
2022-10-05T08:18:50.471Z,8.9
2022-10-05T08:20:50.316Z,8.9
2022-10-05T08:22:49.631Z,10.6
2022-10-05T08:24:50.427Z,9.0
2022-10-05T08:26:49.850Z,9.4
2022-10-05T08:28:49.880Z,9.2
2022-10-05T08:30:49.896Z,9.2
2022-10-05T08:32:50.399Z,9.4
2022-10-05T08:34:49.860Z,9.3
2022-10-05T08:36:53.601Z,12.3
2022-10-05T08:38:50.366Z,12.3
2022-10-05T08:40:50.349Z,12.3
2022-10-05T08:42:50.230Z,9.7
2022-10-05T08:44:50.141Z,9.7
2022-10-05T08:46:49.967Z,8.8
2022-10-05T08:48:50.048Z,8.8
2022-10-05T08:50:50.069Z,8.3
2022-10-05T08:52:50.063Z,9.5
2022-10-05T08:54:50.016Z,8.4
2022-10-05T08:56:50.286Z,9.3
2022-10-05T08:58:50.153Z,9.3
2022-10-05T09:00:50.254Z,8.0
2022-10-05T09:02:50.190Z,8.1
2022-10-05T09:04:50.151Z,10.3
2022-10-05T09:06:49.633Z,10.3
2022-10-05T09:08:50.438Z,8.1
2022-10-05T09:10:50.523Z,8.2
2022-10-05T09:12:50.337Z,11.2
2022-10-05T09:15:01.405Z,8.6
2022-10-05T09:16:50.420Z,8.6
2022-10-05T09:18:50.463Z,8.3
2022-10-05T09:20:50.439Z,8.2
2022-10-05T09:22:50.408Z,9.3
2022-10-05T09:24:50.298Z,9.3
2022-10-05T09:26:49.815Z,8.4
2022-10-05T09:28:50.072Z,9.8
2022-10-05T09:30:50.096Z,8.2
2022-10-05T09:32:50.494Z,10.0
2022-10-05T09:34:50.159Z,9.9
2022-10-05T09:36:49.748Z,9.9
2022-10-05T09:38:49.871Z,8.6
2022-10-05T09:40:49.730Z,8.0
2022-10-05T09:42:49.890Z,7.2
2022-10-05T09:44:49.866Z,9.6
2022-10-05T09:46:50.342Z,9.6
2022-10-05T09:48:50.251Z,8.5
2022-10-05T09:50:50.386Z,7.5
2022-10-05T09:52:49.790Z,7.7
2022-10-05T09:54:49.655Z,9.9
2022-10-05T09:56:50.113Z,9.9
2022-10-05T09:58:50.270Z,9.0
2022-10-05T10:00:54.271Z,9.0
2022-10-05T10:02:50.609Z,9.0
2022-10-05T10:04:49.638Z,9.3
2022-10-05T10:06:49.964Z,9.3
2022-10-05T10:08:49.820Z,8.8
2022-10-05T10:10:49.906Z,9.0
2022-10-05T10:12:49.854Z,7.5
2022-10-05T10:14:49.665Z,8.0
2022-10-05T10:16:50.460Z,8.0
2022-10-05T10:18:49.565Z,6.9
2022-10-05T10:20:49.569Z,6.7
2022-10-05T10:22:49.757Z,8.5
2022-10-05T10:24:49.836Z,6.4
2022-10-05T10:26:50.344Z,6.4
2022-10-05T10:28:50.361Z,7.0
2022-10-05T10:30:50.372Z,7.0
2022-10-05T10:32:49.684Z,6.9
2022-10-05T10:34:49.999Z,6.9
2022-10-05T10:36:50.613Z,7.9
2022-10-05T10:38:49.668Z,5.9
2022-10-05T10:40:49.832Z,10.0
2022-10-05T10:42:49.854Z,10.0
2022-10-05T10:44:49.866Z,6.1
2022-10-05T10:46:50.531Z,8.5
2022-10-05T10:48:50.429Z,6.7
2022-10-05T10:50:50.483Z,6.3
2022-10-05T10:52:49.591Z,5.0
2022-10-05T10:54:49.622Z,5.0
2022-10-05T10:56:50.037Z,5.0
2022-10-05T10:58:50.002Z,4.8
2022-10-05T11:00:50.065Z,4.8
2022-10-05T11:02:50.090Z,5.4
2022-10-05T11:04:50.020Z,5.4
2022-10-05T11:06:50.290Z,6.4
2022-10-05T11:08:50.299Z,5.4
2022-10-05T11:10:50.509Z,5.2
2022-10-05T11:12:49.629Z,4.9
2022-10-05T11:14:50.241Z,4.9
2022-10-05T11:16:50.747Z,4.9
2022-10-05T11:18:49.912Z,8.0
2022-10-05T11:20:49.695Z,4.7
2022-10-05T11:22:49.677Z,4.7
2022-10-05T11:24:49.684Z,4.6
2022-10-05T11:26:50.484Z,4.4
2022-10-05T11:28:49.910Z,4.8
2022-10-05T11:30:51.123Z,4.2
2022-10-05T11:32:50.203Z,4.2
2022-10-05T11:34:49.860Z,4.1
2022-10-05T11:36:50.081Z,4.2
2022-10-05T11:38:50.000Z,5.8
2022-10-05T11:40:50.236Z,3.9
2022-10-05T11:42:50.307Z,3.9
2022-10-05T11:44:50.232Z,3.8
2022-10-05T11:46:49.709Z,3.7
2022-10-05T11:48:50.072Z,3.6
2022-10-05T11:50:50.187Z,3.6
2022-10-05T11:52:49.967Z,4.7
2022-10-05T11:55:10.686Z,4.3
2022-10-05T11:56:52.190Z,4.2
2022-10-05T11:58:50.327Z,3.5
2022-10-05T12:00:50.167Z,3.5
2022-10-05T12:02:50.167Z,3.7
2022-10-05T12:04:50.118Z,3.5
2022-10-05T12:06:50.829Z,7.9
2022-10-05T12:08:50.270Z,3.8
2022-10-05T12:10:50.164Z,3.8
2022-10-05T12:12:50.231Z,4.5
2022-10-05T12:14:50.062Z,5.9
2022-10-05T12:16:49.932Z,3.5
2022-10-05T12:18:49.855Z,3.9
2022-10-05T12:20:50.219Z,3.9
2022-10-05T12:22:50.086Z,5.3
2022-10-05T12:24:50.038Z,3.4
2022-10-05T12:26:50.190Z,3.4
2022-10-05T12:28:50.250Z,3.6
2022-10-05T12:30:50.091Z,3.6
2022-10-05T12:32:50.010Z,2.7
2022-10-05T12:34:49.620Z,2.7
2022-10-05T12:37:03.401Z,2.7
2022-10-05T12:38:50.056Z,6.2
2022-10-05T12:40:49.800Z,6.2
2022-10-05T12:42:49.771Z,5.0
2022-10-05T12:44:49.628Z,2.7
2022-10-05T12:46:50.088Z,2.7
2022-10-05T12:48:49.889Z,2.8
2022-10-05T12:50:49.983Z,2.8
2022-10-05T12:52:49.898Z,3.2
2022-10-05T12:54:50.030Z,3.4
2022-10-05T12:56:50.316Z,3.4
2022-10-05T12:58:50.452Z,3.6
2022-10-05T13:00:50.551Z,2.5
2022-10-05T13:02:49.842Z,2.6
2022-10-05T13:04:49.608Z,2.6
2022-10-05T13:06:49.742Z,2.2
2022-10-05T13:08:49.767Z,2.2
2022-10-05T13:10:49.580Z,2.2
2022-10-05T13:12:49.592Z,2.7
2022-10-05T13:14:50.546Z,2.4
2022-10-05T13:16:54.048Z,2.6
2022-10-05T13:18:49.670Z,2.6
2022-10-05T13:20:49.903Z,3.2
2022-10-05T13:22:49.944Z,3.2
2022-10-05T13:24:49.763Z,3.3
2022-10-05T13:26:50.090Z,2.7
2022-10-05T13:28:50.039Z,2.7
2022-10-05T13:30:50.183Z,2.5
2022-10-05T13:32:50.040Z,2.4
2022-10-05T13:34:50.468Z,4.6
2022-10-05T13:36:49.762Z,4.6
2022-10-05T13:38:49.785Z,2.3
2022-10-05T13:40:49.620Z,2.6
2022-10-05T13:42:49.629Z,2.2
2022-10-05T13:44:49.758Z,2.6
2022-10-05T13:46:50.174Z,2.6
2022-10-05T13:48:50.534Z,2.3
2022-10-05T13:50:50.416Z,2.9
2022-10-05T13:52:50.384Z,5.6
2022-10-05T13:54:50.134Z,2.5
2022-10-05T13:56:50.376Z,2.5
2022-10-05T13:58:50.346Z,4.0
2022-10-05T14:00:50.304Z,2.7
2022-10-05T14:02:50.226Z,2.6
2022-10-05T14:04:50.149Z,3.6
2022-10-05T14:06:50.543Z,3.6
2022-10-05T14:08:50.377Z,2.5
2022-10-05T14:10:49.575Z,2.5
2022-10-05T14:12:50.477Z,2.9
2022-10-05T14:14:50.436Z,2.9
2022-10-05T14:16:49.940Z,4.1
2022-10-05T14:18:50.512Z,2.1
2022-10-05T14:20:49.573Z,2.4
2022-10-05T14:22:49.587Z,2.6
2022-10-05T14:24:50.352Z,2.4
2022-10-05T14:26:49.805Z,2.4
2022-10-05T14:28:50.007Z,3.4
2022-10-05T14:30:54.454Z,4.6
2022-10-05T14:32:50.309Z,3.8
2022-10-05T14:34:49.768Z,3.8
2022-10-05T14:36:50.011Z,2.2
2022-10-05T14:38:50.127Z,3.0
2022-10-05T14:40:49.978Z,2.6
2022-10-05T14:42:49.890Z,3.3
2022-10-05T14:44:50.091Z,3.3
2022-10-05T14:46:50.480Z,3.0
2022-10-05T14:48:50.530Z,4.8
2022-10-05T14:50:50.517Z,4.8
2022-10-05T14:52:51.759Z,12.3
2022-10-05T14:54:49.968Z,12.3
2022-10-05T14:56:50.497Z,6.3
2022-10-05T14:58:50.363Z,5.9
2022-10-05T15:00:50.575Z,5.9
2022-10-05T15:02:49.747Z,10.9
2022-10-05T15:04:49.642Z,10.9
2022-10-05T15:06:53.353Z,13.7
2022-10-05T15:08:50.238Z,4.0
2022-10-05T15:10:50.328Z,4.3
2022-10-05T15:12:50.341Z,4.3
2022-10-05T15:14:50.351Z,3.8
2022-10-05T15:16:49.891Z,5.1
2022-10-05T15:18:50.018Z,3.5
2022-10-05T15:20:50.162Z,6.6
2022-10-05T15:22:50.205Z,6.6
2022-10-05T15:24:50.102Z,3.5
2022-10-05T15:26:50.361Z,5.2
2022-10-05T15:28:50.406Z,3.4
2022-10-05T15:30:50.302Z,2.8
2022-10-05T15:32:49.727Z,2.8
2022-10-05T15:34:50.441Z,3.5
2022-10-05T15:36:49.960Z,8.5
2022-10-05T15:38:50.070Z,7.2
2022-10-05T15:40:50.093Z,7.3
2022-10-05T15:42:50.261Z,7.3
2022-10-05T15:44:50.188Z,11.5
2022-10-05T15:46:49.551Z,3.1
2022-10-05T15:48:50.497Z,3.1
2022-10-05T15:50:50.398Z,5.4
2022-10-05T15:52:50.515Z,5.4
2022-10-05T15:54:50.397Z,7.4
2022-10-05T15:56:49.921Z,9.8
2022-10-05T15:58:49.631Z,5.5
2022-10-05T16:00:50.629Z,5.5
2022-10-05T16:02:49.913Z,6.7
2022-10-05T16:04:49.913Z,9.4
2022-10-05T16:06:50.252Z,7.9
2022-10-05T16:08:50.069Z,7.9
2022-10-05T16:10:49.985Z,8.1
2022-10-05T16:12:49.803Z,7.2
2022-10-05T16:14:49.881Z,15.3
2022-10-05T16:16:50.195Z,15.3
2022-10-05T16:18:49.823Z,10.2
2022-10-05T16:20:49.762Z,25.5
2022-10-05T16:22:49.803Z,34.2
2022-10-05T16:24:49.799Z,29.7
2022-10-05T16:26:49.977Z,28.7
2022-10-05T16:28:49.991Z,28.7
2022-10-05T16:30:50.344Z,18.1
2022-10-05T16:32:49.632Z,14.5
2022-10-05T16:34:50.002Z,22.5
2022-10-05T16:36:50.282Z,22.5
2022-10-05T16:38:50.391Z,12.0
2022-10-05T16:40:50.519Z,12.0
2022-10-05T16:42:50.469Z,13.4
2022-10-05T16:44:50.314Z,9.3
2022-10-05T16:46:49.794Z,5.8
2022-10-05T16:48:50.156Z,7.4
2022-10-05T16:50:50.051Z,7.4
2022-10-05T16:52:50.402Z,10.7
2022-10-05T16:54:50.224Z,5.1
2022-10-05T16:56:50.435Z,5.1
2022-10-05T16:58:50.429Z,7.5
2022-10-05T17:00:50.559Z,7.5
2022-10-05T17:02:49.724Z,7.2
2022-10-05T17:04:49.652Z,8.2
2022-10-05T17:06:50.224Z,5.5
2022-10-05T17:08:50.022Z,5.5
2022-10-05T17:10:49.917Z,7.3
2022-10-05T17:12:49.945Z,4.8
2022-10-05T17:14:50.022Z,4.9
2022-10-05T17:16:50.291Z,9.5
2022-10-05T17:18:50.106Z,9.5
2022-10-05T17:20:50.206Z,7.7
2022-10-05T17:22:49.948Z,4.9
2022-10-05T17:24:50.136Z,5.8
2022-10-05T17:26:50.199Z,5.9
2022-10-05T17:28:50.363Z,5.9
2022-10-05T17:30:50.296Z,7.8
2022-10-05T17:32:50.459Z,9.3
2022-10-05T17:34:50.155Z,8.2
2022-10-05T17:36:49.870Z,8.2
2022-10-05T17:38:49.775Z,5.7
2022-10-05T17:40:49.715Z,5.4
2022-10-05T17:42:49.578Z,7.5
2022-10-05T17:44:50.459Z,6.6
2022-10-05T17:46:49.879Z,6.6
2022-10-05T17:48:50.006Z,8.5
2022-10-05T17:50:49.754Z,7.4
2022-10-05T17:52:49.889Z,6.3
2022-10-05T17:54:49.824Z,8.7
2022-10-05T17:56:50.341Z,8.7
2022-10-05T17:58:50.337Z,7.7
2022-10-05T18:00:50.312Z,8.4
2022-10-05T18:02:50.459Z,7.1
2022-10-05T18:04:50.257Z,7.1
2022-10-05T18:06:49.564Z,6.8
2022-10-05T18:08:50.386Z,8.3
2022-10-05T18:10:50.564Z,6.3
2022-10-05T18:12:50.511Z,6.3
2022-10-05T18:14:50.449Z,5.8
2022-10-05T18:16:49.823Z,10.3
2022-10-05T18:18:49.560Z,8.1
2022-10-05T18:20:49.588Z,8.1
2022-10-05T18:22:50.431Z,8.1
2022-10-05T18:24:50.422Z,5.7
2022-10-05T18:26:50.479Z,5.7
2022-10-05T18:28:50.554Z,6.8
2022-10-05T18:30:49.714Z,7.8
2022-10-05T18:32:49.930Z,6.0
2022-10-05T18:34:50.391Z,7.9
2022-10-05T18:36:49.792Z,7.9
2022-10-05T18:38:49.731Z,6.4
2022-10-05T18:40:50.511Z,6.4
2022-10-05T18:42:49.563Z,6.2
2022-10-05T18:44:50.444Z,6.2
2022-10-05T18:46:49.846Z,6.4
2022-10-05T18:48:50.240Z,7.5
2022-10-05T18:50:50.206Z,7.5
2022-10-05T18:52:50.292Z,6.6
2022-10-05T18:54:50.386Z,6.6
2022-10-05T18:56:49.838Z,5.2
2022-10-05T18:58:53.264Z,5.5
2022-10-05T19:00:50.129Z,6.1
2022-10-05T19:02:50.000Z,6.1
2022-10-05T19:04:49.774Z,6.2
2022-10-05T19:06:50.098Z,7.0
2022-10-05T19:08:50.090Z,6.5
2022-10-05T19:10:50.362Z,7.0
2022-10-05T19:12:49.962Z,7.0
2022-10-05T19:14:50.091Z,5.9
2022-10-05T19:16:50.038Z,7.2
2022-10-05T19:18:50.406Z,9.0
2022-10-05T19:20:50.362Z,7.6
2022-10-05T19:22:50.011Z,7.6
2022-10-05T19:24:49.962Z,6.8
2022-10-05T19:26:50.493Z,8.3
2022-10-05T19:28:50.484Z,7.9
2022-10-05T19:30:49.889Z,7.9
2022-10-05T19:32:50.276Z,8.0
2022-10-05T19:34:49.907Z,8.2
2022-10-05T19:36:50.237Z,6.5
2022-10-05T19:38:50.319Z,8.2
2022-10-05T19:40:50.245Z,6.5
2022-10-05T19:42:50.305Z,6.5
2022-10-05T19:44:50.214Z,6.6
2022-10-05T19:46:50.440Z,6.8
2022-10-05T19:48:49.903Z,6.8
2022-10-05T19:50:50.030Z,7.2
2022-10-05T19:52:50.326Z,7.2
2022-10-05T19:54:50.289Z,8.6
2022-10-05T19:56:49.722Z,8.6
2022-10-05T19:58:50.428Z,7.6
2022-10-05T20:00:50.356Z,7.1
2022-10-05T20:02:50.138Z,7.1
2022-10-05T20:04:49.945Z,8.8
2022-10-05T20:06:50.197Z,7.8
2022-10-05T20:08:50.211Z,8.7
2022-10-05T20:10:50.295Z,8.7
2022-10-05T20:12:50.318Z,8.8
2022-10-05T20:14:50.269Z,11.3
2022-10-05T20:16:49.633Z,8.3
2022-10-05T20:18:49.780Z,8.3
2022-10-05T20:20:49.635Z,8.5
2022-10-05T20:22:49.598Z,9.2
2022-10-05T20:24:50.418Z,8.7
2022-10-05T20:26:49.851Z,8.6
2022-10-05T20:28:49.866Z,8.6
2022-10-05T20:30:50.291Z,9.8
2022-10-05T20:32:50.204Z,8.5
2022-10-05T20:34:50.487Z,9.4
2022-10-05T20:36:49.685Z,11.3
2022-10-05T20:38:49.600Z,10.8
2022-10-05T20:40:50.488Z,10.8
2022-10-05T20:42:50.375Z,10.8
2022-10-05T20:44:54.394Z,10.5
2022-10-05T20:46:50.444Z,10.5
2022-10-05T20:48:49.898Z,11.5
2022-10-05T20:50:49.729Z,11.5
2022-10-05T20:52:49.792Z,10.3
2022-10-05T20:54:49.725Z,11.3
2022-10-05T20:56:49.983Z,11.8
2022-10-05T20:58:49.807Z,11.5
2022-10-05T21:00:50.008Z,11.5
2022-10-05T21:02:50.288Z,11.4
2022-10-05T21:04:49.901Z,10.3
2022-10-05T21:06:49.610Z,11.3
2022-10-05T21:08:50.302Z,10.5
2022-10-05T21:10:50.204Z,10.5
2022-10-05T21:12:50.190Z,10.7
2022-10-05T21:14:50.370Z,11.7
2022-10-05T21:16:50.550Z,12.3
2022-10-05T21:18:49.625Z,12.3
2022-10-05T21:20:50.457Z,10.9
2022-10-05T21:22:50.357Z,10.9
2022-10-05T21:24:50.217Z,11.4
2022-10-05T21:26:50.552Z,12.0
2022-10-05T21:28:50.434Z,12.0
2022-10-05T21:30:50.059Z,11.5
2022-10-05T21:32:49.830Z,10.5
2022-10-05T21:34:50.528Z,10.9
2022-10-05T21:36:49.788Z,10.6
2022-10-05T21:38:49.815Z,10.6
2022-10-05T21:40:49.638Z,12.5
2022-10-05T21:42:50.501Z,11.1
2022-10-05T21:44:50.513Z,11.0
2022-10-05T21:46:49.777Z,11.0
2022-10-05T21:48:49.785Z,10.3
2022-10-05T21:50:49.638Z,12.5
2022-10-05T21:52:49.634Z,10.0
2022-10-05T21:54:50.538Z,10.0
2022-10-05T21:56:49.893Z,11.2
2022-10-05T21:58:49.761Z,10.6
2022-10-05T22:00:49.797Z,10.9
2022-10-05T22:02:49.999Z,9.8
2022-10-05T22:04:49.593Z,9.8
2022-10-05T22:06:49.606Z,9.5
2022-10-05T22:08:49.702Z,9.6
2022-10-05T22:10:49.683Z,10.8
2022-10-05T22:12:49.776Z,10.8
2022-10-05T22:14:49.850Z,10.6
2022-10-05T22:16:50.228Z,10.6
2022-10-05T22:18:49.605Z,10.3
2022-10-05T22:20:50.561Z,10.5
2022-10-05T22:22:50.475Z,10.5
2022-10-05T22:24:50.387Z,15.3
2022-10-05T22:26:49.641Z,15.3
2022-10-05T22:28:50.512Z,10.6
2022-10-05T22:30:50.517Z,14.1
2022-10-05T22:32:50.395Z,12.2
2022-10-05T22:34:49.884Z,12.2
2022-10-05T22:36:50.192Z,10.4
2022-10-05T22:38:50.205Z,14.1
2022-10-05T22:40:50.167Z,10.8
2022-10-05T22:42:50.195Z,10.9
2022-10-05T22:44:50.237Z,10.9
2022-10-05T22:46:49.570Z,11.4
2022-10-05T22:48:49.616Z,12.2
2022-10-05T22:50:49.591Z,12.4
2022-10-05T22:52:49.627Z,13.4
2022-10-05T22:54:50.374Z,13.4
2022-10-05T22:56:49.547Z,10.5
2022-10-05T22:58:49.593Z,12.9
2022-10-05T23:00:57.889Z,10.9
2022-10-05T23:02:50.176Z,10.9
2022-10-05T23:04:49.962Z,10.8
2022-10-05T23:06:50.304Z,11.4
2022-10-05T23:08:50.309Z,12.9
2022-10-05T23:10:50.138Z,12.9
2022-10-05T23:12:50.085Z,10.0
2022-10-05T23:14:49.952Z,10.0
2022-10-05T23:16:50.247Z,10.2
2022-10-05T23:18:49.735Z,10.3
2022-10-05T23:20:49.755Z,10.3
2022-10-05T23:22:49.883Z,10.2
2022-10-05T23:24:49.694Z,10.2
2022-10-05T23:26:49.949Z,9.7
2022-10-05T23:28:49.642Z,10.0
2022-10-05T23:30:49.845Z,9.6
2022-10-05T23:32:50.048Z,11.0
2022-10-05T23:34:50.445Z,11.0
2022-10-05T23:36:49.754Z,11.0
2022-10-05T23:38:49.975Z,9.2
2022-10-05T23:40:49.938Z,9.2
2022-10-05T23:42:49.780Z,10.0
2022-10-05T23:44:49.550Z,9.6
2022-10-05T23:46:49.891Z,9.3
2022-10-05T23:48:49.857Z,9.3
2022-10-05T23:50:49.974Z,9.7
2022-10-05T23:52:49.877Z,9.3
2022-10-05T23:54:49.845Z,10.9
2022-10-05T23:56:50.315Z,9.4
2022-10-05T23:58:50.070Z,9.4
